sensor_id;sensor_type;location;lat;lon;timestamp;pressure;altitude;pressure_sealevel;temperature;humidity
62011;BME280;47967;51.756;10.174;2022-08-04T00:01:35;99629.84;;;19.05;73.42
62011;BME280;47967;51.756;10.174;2022-08-04T00:05:51;99630.69;;;19.06;74.07
62011;BME280;47967;51.756;10.174;2022-08-04T00:09:58;99626.63;;;18.86;74.00
62011;BME280;47967;51.756;10.174;2022-08-04T00:14:03;99634.06;;;18.63;74.43
62011;BME280;47967;51.756;10.174;2022-08-04T00:18:07;99632.78;;;18.49;75.34
62011;BME280;47967;51.756;10.174;2022-08-04T00:22:12;99639.69;;;18.56;75.44
62011;BME280;47967;51.756;10.174;2022-08-04T00:26:16;99633.28;;;18.68;75.21
62011;BME280;47967;51.756;10.174;2022-08-04T00:30:19;99630.56;;;18.68;74.31
62011;BME280;47967;51.756;10.174;2022-08-04T00:34:23;99628.34;;;18.43;74.82
62011;BME280;47967;51.756;10.174;2022-08-04T00:38:28;99629.44;;;18.19;76.19
62011;BME280;47967;51.756;10.174;2022-08-04T00:42:36;99635.97;;;18.18;76.67
62011;BME280;47967;51.756;10.174;2022-08-04T00:47:06;99632.38;;;18.35;76.35
62011;BME280;47967;51.756;10.174;2022-08-04T00:51:25;99627.53;;;18.20;75.66
62011;BME280;47967;51.756;10.174;2022-08-04T01:00:18;99629.44;;;17.97;76.91
62011;BME280;47967;51.756;10.174;2022-08-04T01:04:28;99627.69;;;17.91;77.08
62011;BME280;47967;51.756;10.174;2022-08-04T01:08:48;99628.88;;;17.78;77.39
62011;BME280;47967;51.756;10.174;2022-08-04T01:13:06;99632.13;;;17.75;77.69
62011;BME280;47967;51.756;10.174;2022-08-04T01:17:19;99632.22;;;17.63;77.80
62011;BME280;47967;51.756;10.174;2022-08-04T01:21:45;99641.31;;;17.52;78.42
62011;BME280;47967;51.756;10.174;2022-08-04T01:26:17;99628.44;;;17.47;78.76
62011;BME280;47967;51.756;10.174;2022-08-04T01:30:48;99615.59;;;17.48;78.56
62011;BME280;47967;51.756;10.174;2022-08-04T01:34:52;99630.31;;;17.47;78.84
62011;BME280;47967;51.756;10.174;2022-08-04T01:38:57;99627.09;;;17.33;79.90
62011;BME280;47967;51.756;10.174;2022-08-04T01:43:22;99624.13;;;17.17;79.96
62011;BME280;47967;51.756;10.174;2022-08-04T01:47:29;99624.38;;;17.16;80.15
62011;BME280;47967;51.756;10.174;2022-08-04T01:51:32;99621.66;;;17.16;80.20
62011;BME280;47967;51.756;10.174;2022-08-04T01:55:37;99621.16;;;17.19;79.71
62011;BME280;47967;51.756;10.174;2022-08-04T01:59:58;99620.66;;;17.22;79.81
62011;BME280;47967;51.756;10.174;2022-08-04T02:04:02;99622.72;;;17.32;79.80
62011;BME280;47967;51.756;10.174;2022-08-04T02:08:30;99614.47;;;17.09;79.53
62011;BME280;47967;51.756;10.174;2022-08-04T02:12:50;99617.59;;;17.01;79.72
62011;BME280;47967;51.756;10.174;2022-08-04T02:16:53;99610.28;;;16.90;79.85
62011;BME280;47967;51.756;10.174;2022-08-04T02:21:00;99612.25;;;16.77;80.39
62011;BME280;47967;51.756;10.174;2022-08-04T02:25:05;99603.06;;;16.67;82.18
62011;BME280;47967;51.756;10.174;2022-08-04T02:29:13;99606.47;;;16.74;81.83
62011;BME280;47967;51.756;10.174;2022-08-04T02:33:22;99608.00;;;16.70;82.11
62011;BME280;47967;51.756;10.174;2022-08-04T02:37:30;99605.28;;;16.70;82.17
62011;BME280;47967;51.756;10.174;2022-08-04T02:41:33;99605.06;;;16.71;81.35
62011;BME280;47967;51.756;10.174;2022-08-04T02:45:40;99594.63;;;16.68;80.79
62011;BME280;47967;51.756;10.174;2022-08-04T02:49:44;99600.47;;;16.60;81.75
62011;BME280;47967;51.756;10.174;2022-08-04T02:53:52;99584.56;;;16.52;82.48
62011;BME280;47967;51.756;10.174;2022-08-04T02:57:55;99593.28;;;16.54;82.36
62011;BME280;47967;51.756;10.174;2022-08-04T03:01:59;99588.59;;;16.49;81.93
62011;BME280;47967;51.756;10.174;2022-08-04T03:06:22;99592.72;;;16.52;81.45
62011;BME280;47967;51.756;10.174;2022-08-04T03:10:55;99587.69;;;16.31;81.87
62011;BME280;47967;51.756;10.174;2022-08-04T03:15:22;99586.28;;;16.29;81.87
62011;BME280;47967;51.756;10.174;2022-08-04T03:19:48;99589.59;;;16.31;82.05
62011;BME280;47967;51.756;10.174;2022-08-04T03:24:29;99590.41;;;16.31;81.71
62011;BME280;47967;51.756;10.174;2022-08-04T03:29:23;99587.72;;;16.20;82.52
62011;BME280;47967;51.756;10.174;2022-08-04T03:33:55;99586.72;;;16.09;82.58
62011;BME280;47967;51.756;10.174;2022-08-04T03:38:26;99591.22;;;16.03;82.71
62011;BME280;47967;51.756;10.174;2022-08-04T03:48:09;99580.00;;;15.88;84.54
62011;BME280;47967;51.756;10.174;2022-08-04T04:01:42;99579.38;;;16.09;84.17
62011;BME280;47967;51.756;10.174;2022-08-04T04:06:36;99582.78;;;16.16;83.18
62011;BME280;47967;51.756;10.174;2022-08-04T04:11:07;99578.16;;;16.17;82.45
62011;BME280;47967;51.756;10.174;2022-08-04T04:15:28;99571.41;;;16.20;82.38
62011;BME280;47967;51.756;10.174;2022-08-04T04:19:53;99574.72;;;16.22;82.46
62011;BME280;47967;51.756;10.174;2022-08-04T04:24:18;99576.00;;;16.31;82.30
62011;BME280;47967;51.756;10.174;2022-08-04T04:28:49;99582.69;;;16.40;82.16
62011;BME280;47967;51.756;10.174;2022-08-04T04:33:18;99579.66;;;16.54;81.91
62011;BME280;47967;51.756;10.174;2022-08-04T04:37:42;99581.03;;;16.68;81.38
62011;BME280;47967;51.756;10.174;2022-08-04T04:42:01;99581.88;;;16.86;80.88
62011;BME280;47967;51.756;10.174;2022-08-04T04:46:12;99582.06;;;16.96;81.03
62011;BME280;47967;51.756;10.174;2022-08-04T04:50:35;99587.94;;;17.05;80.98
62011;BME280;47967;51.756;10.174;2022-08-04T04:54:44;99588.44;;;17.19;80.92
62011;BME280;47967;51.756;10.174;2022-08-04T04:58:55;99587.00;;;17.33;80.32
62011;BME280;47967;51.756;10.174;2022-08-04T05:03:25;99581.63;;;17.55;79.46
62011;BME280;47967;51.756;10.174;2022-08-04T05:12:54;99595.94;;;18.02;78.36
62011;BME280;47967;51.756;10.174;2022-08-04T05:17:24;99586.50;;;18.15;77.50
62011;BME280;47967;51.756;10.174;2022-08-04T05:21:35;99593.56;;;18.33;77.16
62011;BME280;47967;51.756;10.174;2022-08-04T05:25:42;99589.34;;;18.47;76.87
62011;BME280;47967;51.756;10.174;2022-08-04T05:30:02;99583.06;;;18.74;76.06
62011;BME280;47967;51.756;10.174;2022-08-04T05:34:10;99592.28;;;18.95;75.26
62011;BME280;47967;51.756;10.174;2022-08-04T05:38:17;99589.69;;;19.11;75.07
62011;BME280;47967;51.756;10.174;2022-08-04T05:42:21;99582.69;;;19.25;74.19
62011;BME280;47967;51.756;10.174;2022-08-04T05:46:24;99582.00;;;19.45;73.83
62011;BME280;47967;51.756;10.174;2022-08-04T05:50:31;99589.81;;;19.69;73.13
62011;BME280;47967;51.756;10.174;2022-08-04T05:54:36;99582.00;;;19.88;72.60
62011;BME280;47967;51.756;10.174;2022-08-04T05:58:40;99578.22;;;19.99;72.03
62011;BME280;47967;51.756;10.174;2022-08-04T06:02:45;99579.97;;;20.31;71.11
62011;BME280;47967;51.756;10.174;2022-08-04T06:06:51;99577.00;;;20.48;70.27
62011;BME280;47967;51.756;10.174;2022-08-04T06:10:56;99565.03;;;20.75;69.71
62011;BME280;47967;51.756;10.174;2022-08-04T06:15:00;99568.06;;;21.00;68.91
62011;BME280;47967;51.756;10.174;2022-08-04T06:19:07;99565.84;;;21.22;67.47
62011;BME280;47967;51.756;10.174;2022-08-04T06:23:33;99558.13;;;21.45;66.67
62011;BME280;47967;51.756;10.174;2022-08-04T06:27:57;99563.56;;;21.71;66.88
62011;BME280;47967;51.756;10.174;2022-08-04T06:32:02;99563.44;;;22.02;66.29
62011;BME280;47967;51.756;10.174;2022-08-04T06:36:33;99562.78;;;22.31;65.51
62011;BME280;47967;51.756;10.174;2022-08-04T06:40:39;99563.19;;;22.59;64.76
62011;BME280;47967;51.756;10.174;2022-08-04T06:44:43;99564.09;;;22.83;63.76
62011;BME280;47967;51.756;10.174;2022-08-04T06:48:48;99553.41;;;23.11;63.32
62011;BME280;47967;51.756;10.174;2022-08-04T06:52:52;99561.53;;;23.32;61.65
62011;BME280;47967;51.756;10.174;2022-08-04T06:56:56;99549.91;;;23.64;60.94
62011;BME280;47967;51.756;10.174;2022-08-04T07:01:01;99546.00;;;23.90;60.45
62011;BME280;47967;51.756;10.174;2022-08-04T07:05:05;99551.22;;;24.16;59.55
62011;BME280;47967;51.756;10.174;2022-08-04T07:09:09;99549.50;;;24.39;59.37
62011;BME280;47967;51.756;10.174;2022-08-04T07:13:13;99546.66;;;24.63;58.30
62011;BME280;47967;51.756;10.174;2022-08-04T07:17:17;99548.63;;;24.82;57.89
62011;BME280;47967;51.756;10.174;2022-08-04T07:21:21;99540.00;;;25.02;57.32
62011;BME280;47967;51.756;10.174;2022-08-04T07:25:24;99540.47;;;25.23;57.00
62011;BME280;47967;51.756;10.174;2022-08-04T07:29:48;99535.00;;;25.51;56.14
62011;BME280;47967;51.756;10.174;2022-08-04T07:33:51;99538.59;;;25.80;55.29
62011;BME280;47967;51.756;10.174;2022-08-04T07:38:14;99538.06;;;26.05;54.74
62011;BME280;47967;51.756;10.174;2022-08-04T07:42:18;99533.56;;;26.46;53.97
62011;BME280;47967;51.756;10.174;2022-08-04T07:46:23;99528.72;;;26.89;53.14
62011;BME280;47967;51.756;10.174;2022-08-04T07:50:32;99520.44;;;27.20;52.00
62011;BME280;47967;51.756;10.174;2022-08-04T07:54:35;99524.69;;;27.49;50.36
62011;BME280;47967;51.756;10.174;2022-08-04T07:58:38;99515.47;;;27.80;49.92
62011;BME280;47967;51.756;10.174;2022-08-04T08:02:44;99511.44;;;28.04;48.73
62011;BME280;47967;51.756;10.174;2022-08-04T08:06:48;99513.66;;;28.42;48.12
62011;BME280;47967;51.756;10.174;2022-08-04T08:10:52;99502.22;;;28.79;46.17
62011;BME280;47967;51.756;10.174;2022-08-04T08:14:54;99498.69;;;29.17;44.17
62011;BME280;47967;51.756;10.174;2022-08-04T08:18:59;99495.50;;;29.45;42.83
62011;BME280;47967;51.756;10.174;2022-08-04T08:23:02;99496.22;;;29.63;42.61
62011;BME280;47967;51.756;10.174;2022-08-04T08:27:05;99489.06;;;29.83;41.49
62011;BME280;47967;51.756;10.174;2022-08-04T08:31:08;99489.19;;;29.95;40.20
62011;BME280;47967;51.756;10.174;2022-08-04T08:35:12;99490.16;;;30.21;41.17
62011;BME280;47967;51.756;10.174;2022-08-04T08:39:18;99475.41;;;30.41;39.14
62011;BME280;47967;51.756;10.174;2022-08-04T08:43:38;99484.50;;;30.72;39.36
62011;BME280;47967;51.756;10.174;2022-08-04T08:48:15;99480.84;;;30.92;38.99
62011;BME280;47967;51.756;10.174;2022-08-04T08:52:34;99481.03;;;31.21;37.06
62011;BME280;47967;51.756;10.174;2022-08-04T08:57:13;99476.97;;;31.43;36.28
62011;BME280;47967;51.756;10.174;2022-08-04T09:01:30;99480.13;;;31.66;35.21
62011;BME280;47967;51.756;10.174;2022-08-04T09:05:52;99490.69;;;31.85;34.44
62011;BME280;47967;51.756;10.174;2022-08-04T09:10:06;99488.81;;;32.02;35.24
62011;BME280;47967;51.756;10.174;2022-08-04T09:14:18;99487.13;;;32.38;35.29
62011;BME280;47967;51.756;10.174;2022-08-04T09:18:26;99491.13;;;32.53;34.44
62011;BME280;47967;51.756;10.174;2022-08-04T09:22:35;99481.69;;;32.57;33.97
62011;BME280;47967;51.756;10.174;2022-08-04T09:26:45;99490.72;;;32.95;34.00
62011;BME280;47967;51.756;10.174;2022-08-04T09:31:06;99477.38;;;33.04;33.49
62011;BME280;47967;51.756;10.174;2022-08-04T09:35:16;99478.13;;;33.33;33.11
62011;BME280;47967;51.756;10.174;2022-08-04T09:39:28;99488.38;;;33.61;32.88
62011;BME280;47967;51.756;10.174;2022-08-04T09:43:45;99482.59;;;33.86;32.35
62011;BME280;47967;51.756;10.174;2022-08-04T09:48:12;99482.69;;;34.09;32.39
62011;BME280;47967;51.756;10.174;2022-08-04T09:52:26;99481.09;;;34.08;32.27
62011;BME280;47967;51.756;10.174;2022-08-04T09:56:37;99480.88;;;34.17;32.66
62011;BME280;47967;51.756;10.174;2022-08-04T10:00:46;99470.47;;;33.98;31.64
62011;BME280;47967;51.756;10.174;2022-08-04T10:04:52;99466.69;;;33.90;33.07
62011;BME280;47967;51.756;10.174;2022-08-04T10:09:01;99463.94;;;34.10;32.51
62011;BME280;47967;51.756;10.174;2022-08-04T10:13:20;99460.97;;;34.22;32.78
62011;BME280;47967;51.756;10.174;2022-08-04T10:17:36;99466.34;;;34.31;32.18
62011;BME280;47967;51.756;10.174;2022-08-04T10:21:58;99458.34;;;34.49;31.80
62011;BME280;47967;51.756;10.174;2022-08-04T10:26:29;99450.97;;;34.84;31.86
62011;BME280;47967;51.756;10.174;2022-08-04T10:30:35;99452.63;;;35.08;31.25
62011;BME280;47967;51.756;10.174;2022-08-04T10:34:43;99456.59;;;35.30;31.12
62011;BME280;47967;51.756;10.174;2022-08-04T10:38:56;99457.94;;;35.63;30.87
62011;BME280;47967;51.756;10.174;2022-08-04T10:43:01;99450.22;;;35.83;30.70
62011;BME280;47967;51.756;10.174;2022-08-04T10:47:12;99447.09;;;35.62;29.94
62011;BME280;47967;51.756;10.174;2022-08-04T10:51:34;99442.28;;;35.35;30.38
62011;BME280;47967;51.756;10.174;2022-08-04T10:56:01;99441.41;;;35.85;30.24
62011;BME280;47967;51.756;10.174;2022-08-04T11:00:11;99437.66;;;36.00;29.70
62011;BME280;47967;51.756;10.174;2022-08-04T11:04:22;99429.00;;;36.16;28.79
62011;BME280;47967;51.756;10.174;2022-08-04T11:08:32;99428.56;;;36.45;29.16
62011;BME280;47967;51.756;10.174;2022-08-04T11:12:37;99425.34;;;36.43;28.89
62011;BME280;47967;51.756;10.174;2022-08-04T11:16:43;99421.03;;;36.52;28.38
62011;BME280;47967;51.756;10.174;2022-08-04T11:20:51;99423.53;;;36.61;28.25
62011;BME280;47967;51.756;10.174;2022-08-04T11:25:05;99411.22;;;36.77;27.72
62011;BME280;47967;51.756;10.174;2022-08-04T11:29:16;99416.47;;;36.78;27.83
62011;BME280;47967;51.756;10.174;2022-08-04T11:33:32;99421.00;;;36.90;27.99
62011;BME280;47967;51.756;10.174;2022-08-04T11:37:44;99414.09;;;37.29;27.86
62011;BME280;47967;51.756;10.174;2022-08-04T11:41:52;99405.34;;;37.41;27.70
62011;BME280;47967;51.756;10.174;2022-08-04T11:46:00;99408.78;;;37.16;26.78
62011;BME280;47967;51.756;10.174;2022-08-04T11:50:09;99411.63;;;37.24;27.46
62011;BME280;47967;51.756;10.174;2022-08-04T11:54:12;99406.53;;;37.40;26.88
62011;BME280;47967;51.756;10.174;2022-08-04T11:58:18;99412.91;;;36.85;27.30
62011;BME280;47967;51.756;10.174;2022-08-04T12:02:51;99417.03;;;36.95;27.26
62011;BME280;47967;51.756;10.174;2022-08-04T12:07:04;99419.91;;;37.02;27.22
62011;BME280;47967;51.756;10.174;2022-08-04T12:11:39;99413.59;;;37.75;26.38
62011;BME280;47967;51.756;10.174;2022-08-04T12:15:52;99413.50;;;37.61;26.20
62011;BME280;47967;51.756;10.174;2022-08-04T12:20:00;99417.63;;;37.78;26.37
62011;BME280;47967;51.756;10.174;2022-08-04T12:24:27;99413.56;;;37.68;26.85
62011;BME280;47967;51.756;10.174;2022-08-04T12:28:35;99407.75;;;37.36;27.09
62011;BME280;47967;51.756;10.174;2022-08-04T12:33:04;99405.84;;;37.02;27.59
62011;BME280;47967;51.756;10.174;2022-08-04T12:37:13;99401.03;;;37.03;27.66
62011;BME280;47967;51.756;10.174;2022-08-04T12:41:26;99404.53;;;37.37;27.38
62011;BME280;47967;51.756;10.174;2022-08-04T12:45:30;99396.69;;;37.12;27.37
62011;BME280;47967;51.756;10.174;2022-08-04T12:49:38;99395.41;;;37.03;27.94
62011;BME280;47967;51.756;10.174;2022-08-04T12:53:50;99385.06;;;37.17;27.77
62011;BME280;47967;51.756;10.174;2022-08-04T12:57:53;99390.41;;;36.85;27.52
62011;BME280;47967;51.756;10.174;2022-08-04T13:01:57;99382.16;;;37.03;28.44
62011;BME280;47967;51.756;10.174;2022-08-04T13:06:14;99374.47;;;37.52;27.70
62011;BME280;47967;51.756;10.174;2022-08-04T13:10:24;99374.81;;;37.43;27.48
62011;BME280;47967;51.756;10.174;2022-08-04T13:14:34;99371.31;;;37.68;26.90
62011;BME280;47967;51.756;10.174;2022-08-04T13:18:40;99368.69;;;38.04;27.15
62011;BME280;47967;51.756;10.174;2022-08-04T13:22:48;99366.66;;;38.05;27.12
62011;BME280;47967;51.756;10.174;2022-08-04T13:26:55;99370.97;;;37.73;27.03
62011;BME280;47967;51.756;10.174;2022-08-04T13:31:06;99371.16;;;37.36;27.39
62011;BME280;47967;51.756;10.174;2022-08-04T13:35:11;99365.81;;;37.27;28.21
62011;BME280;47967;51.756;10.174;2022-08-04T13:39:17;99364.25;;;37.26;28.02
62011;BME280;47967;51.756;10.174;2022-08-04T13:43:24;99359.00;;;37.28;27.65
62011;BME280;47967;51.756;10.174;2022-08-04T13:47:48;99350.34;;;37.55;27.30
62011;BME280;47967;51.756;10.174;2022-08-04T13:51:53;99348.38;;;37.59;26.84
62011;BME280;47967;51.756;10.174;2022-08-04T13:56:02;99333.00;;;37.42;28.06
62011;BME280;47967;51.756;10.174;2022-08-04T14:00:07;99336.84;;;37.86;26.37
62011;BME280;47967;51.756;10.174;2022-08-04T14:04:14;99336.13;;;38.10;25.90
62011;BME280;47967;51.756;10.174;2022-08-04T14:08:24;99322.97;;;38.87;25.74
62011;BME280;47967;51.756;10.174;2022-08-04T14:12:31;99310.84;;;38.72;24.95
62011;BME280;47967;51.756;10.174;2022-08-04T14:16:57;99311.25;;;39.03;25.14
62011;BME280;47967;51.756;10.174;2022-08-04T14:21:02;99313.66;;;38.94;25.11
62011;BME280;47967;51.756;10.174;2022-08-04T14:25:07;99299.13;;;39.31;24.81
62011;BME280;47967;51.756;10.174;2022-08-04T14:29:18;99304.22;;;39.76;22.97
62011;BME280;47967;51.756;10.174;2022-08-04T14:33:35;99293.16;;;40.03;23.35
62011;BME280;47967;51.756;10.174;2022-08-04T14:38:00;99279.91;;;40.53;23.45
62011;BME280;47967;51.756;10.174;2022-08-04T14:42:05;99287.59;;;39.85;23.47
62011;BME280;47967;51.756;10.174;2022-08-04T14:46:10;99287.91;;;38.70;25.37
62011;BME280;47967;51.756;10.174;2022-08-04T14:50:13;99285.44;;;39.12;23.60
62011;BME280;47967;51.756;10.174;2022-08-04T14:54:23;99285.97;;;39.84;22.88
62011;BME280;47967;51.756;10.174;2022-08-04T14:58:29;99279.25;;;40.84;22.42
62011;BME280;47967;51.756;10.174;2022-08-04T15:02:41;99269.09;;;40.41;22.29
62011;BME280;47967;51.756;10.174;2022-08-04T15:06:45;99274.41;;;39.53;22.97
62011;BME280;47967;51.756;10.174;2022-08-04T15:10:48;99272.09;;;39.34;23.60
62011;BME280;47967;51.756;10.174;2022-08-04T15:14:51;99277.41;;;40.02;22.90
62011;BME280;47967;51.756;10.174;2022-08-04T15:18:56;99271.44;;;39.90;22.65
62011;BME280;47967;51.756;10.174;2022-08-04T15:23:01;99281.00;;;39.11;22.96
62011;BME280;47967;51.756;10.174;2022-08-04T15:27:11;99273.19;;;39.58;23.16
62011;BME280;47967;51.756;10.174;2022-08-04T15:31:17;99263.50;;;39.59;22.80
62011;BME280;47967;51.756;10.174;2022-08-04T15:35:47;99255.97;;;40.12;22.91
62011;BME280;47967;51.756;10.174;2022-08-04T15:39:52;99259.31;;;40.98;22.05
62011;BME280;47967;51.756;10.174;2022-08-04T15:44:16;99256.63;;;40.84;22.12
62011;BME280;47967;51.756;10.174;2022-08-04T15:48:23;99256.22;;;40.36;22.41
62011;BME280;47967;51.756;10.174;2022-08-04T15:52:28;99267.31;;;40.01;23.23
62011;BME280;47967;51.756;10.174;2022-08-04T15:56:42;99270.00;;;39.49;23.52
62011;BME280;47967;51.756;10.174;2022-08-04T16:01:14;99262.53;;;38.59;25.09
62011;BME280;47967;51.756;10.174;2022-08-04T16:05:31;99268.13;;;38.26;24.98
62011;BME280;47967;51.756;10.174;2022-08-04T16:09:44;99247.56;;;38.04;25.16
62011;BME280;47967;51.756;10.174;2022-08-04T16:14:06;99260.84;;;37.93;25.68
62011;BME280;47967;51.756;10.174;2022-08-04T16:18:11;99257.66;;;38.09;25.58
62011;BME280;47967;51.756;10.174;2022-08-04T16:22:35;99254.69;;;37.69;25.67
62011;BME280;47967;51.756;10.174;2022-08-04T16:26:45;99266.47;;;37.12;27.03
62011;BME280;47967;51.756;10.174;2022-08-04T16:30:58;99267.41;;;36.71;26.93
62011;BME280;47967;51.756;10.174;2022-08-04T16:35:03;99267.50;;;36.82;27.68
62011;BME280;47967;51.756;10.174;2022-08-04T16:39:19;99269.97;;;36.87;27.50
62011;BME280;47967;51.756;10.174;2022-08-04T16:43:27;99273.91;;;36.82;27.65
62011;BME280;47967;51.756;10.174;2022-08-04T16:48:03;99271.34;;;36.63;27.50
62011;BME280;47967;51.756;10.174;2022-08-04T16:52:08;99279.84;;;36.70;28.12
62011;BME280;47967;51.756;10.174;2022-08-04T16:56:15;99276.00;;;36.89;27.86
62011;BME280;47967;51.756;10.174;2022-08-04T17:00:29;99286.25;;;37.23;27.62
62011;BME280;47967;51.756;10.174;2022-08-04T17:04:33;99272.03;;;37.01;27.54
62011;BME280;47967;51.756;10.174;2022-08-04T17:08:36;99274.00;;;36.45;27.87
62011;BME280;47967;51.756;10.174;2022-08-04T17:12:39;99275.09;;;35.92;28.44
62011;BME280;47967;51.756;10.174;2022-08-04T17:16:43;99271.91;;;35.63;29.19
62011;BME280;47967;51.756;10.174;2022-08-04T17:20:45;99277.28;;;35.14;29.61
62011;BME280;47967;51.756;10.174;2022-08-04T17:25:03;99281.34;;;34.67;30.58
62011;BME280;47967;51.756;10.174;2022-08-04T17:29:05;99291.66;;;34.16;31.03
62011;BME280;47967;51.756;10.174;2022-08-04T17:33:12;99319.13;;;33.16;33.55
62011;BME280;47967;51.756;10.174;2022-08-04T17:37:17;99318.59;;;32.94;35.07
62011;BME280;47967;51.756;10.174;2022-08-04T17:41:40;99324.47;;;32.57;36.56
62011;BME280;47967;51.756;10.174;2022-08-04T17:46:14;99329.19;;;31.68;40.07
62011;BME280;47967;51.756;10.174;2022-08-04T17:50:31;99331.03;;;31.10;41.93
62011;BME280;47967;51.756;10.174;2022-08-04T17:54:37;99349.41;;;30.65;43.39
62011;BME280;47967;51.756;10.174;2022-08-04T17:58:41;99354.91;;;30.41;44.41
62011;BME280;47967;51.756;10.174;2022-08-04T18:02:53;99353.28;;;30.06;45.49
62011;BME280;47967;51.756;10.174;2022-08-04T18:06:59;99359.28;;;29.96;46.03
62011;BME280;47967;51.756;10.174;2022-08-04T18:11:02;99361.69;;;29.76;46.83
62011;BME280;47967;51.756;10.174;2022-08-04T18:15:06;99358.16;;;29.88;46.72
62011;BME280;47967;51.756;10.174;2022-08-04T18:19:13;99361.97;;;29.83;47.47
62011;BME280;47967;51.756;10.174;2022-08-04T18:23:21;99379.75;;;29.70;47.10
62011;BME280;47967;51.756;10.174;2022-08-04T18:27:33;99390.16;;;29.52;47.78
62011;BME280;47967;51.756;10.174;2022-08-04T18:31:35;99379.47;;;29.33;48.12
62011;BME280;47967;51.756;10.174;2022-08-04T18:35:38;99381.50;;;29.15;48.48
62011;BME280;47967;51.756;10.174;2022-08-04T18:40:02;99391.31;;;29.12;48.94
62011;BME280;47967;51.756;10.174;2022-08-04T18:44:25;99399.38;;;29.05;49.03
62011;BME280;47967;51.756;10.174;2022-08-04T18:48:29;99399.25;;;28.92;49.53
62011;BME280;47967;51.756;10.174;2022-08-04T18:52:37;99393.94;;;28.79;50.00
62011;BME280;47967;51.756;10.174;2022-08-04T18:56:48;99404.88;;;28.57;50.51
62011;BME280;47967;51.756;10.174;2022-08-04T19:01:10;99398.56;;;28.39;50.83
62011;BME280;47967;51.756;10.174;2022-08-04T19:05:14;99398.25;;;28.23;50.83
62011;BME280;47967;51.756;10.174;2022-08-04T19:09:19;99404.47;;;28.11;51.38
62011;BME280;47967;51.756;10.174;2022-08-04T19:13:44;99411.00;;;28.07;51.48
62011;BME280;47967;51.756;10.174;2022-08-04T19:17:58;99417.97;;;28.04;51.57
62011;BME280;47967;51.756;10.174;2022-08-04T19:22:01;99417.66;;;27.97;51.57
62011;BME280;47967;51.756;10.174;2022-08-04T19:26:08;99421.72;;;27.91;51.32
62011;BME280;47967;51.756;10.174;2022-08-04T19:30:29;99429.53;;;27.89;50.48
62011;BME280;47967;51.756;10.174;2022-08-04T19:34:31;99434.75;;;27.73;50.68
62011;BME280;47967;51.756;10.174;2022-08-04T19:38:36;99440.72;;;27.48;51.52
62011;BME280;47967;51.756;10.174;2022-08-04T19:42:38;99439.16;;;27.25;51.48
62011;BME280;47967;51.756;10.174;2022-08-04T19:46:44;99434.69;;;27.06;52.24
62011;BME280;47967;51.756;10.174;2022-08-04T19:50:47;99439.81;;;26.90;52.03
62011;BME280;47967;51.756;10.174;2022-08-04T19:54:50;99446.44;;;26.80;52.17
62011;BME280;47967;51.756;10.174;2022-08-04T19:58:53;99445.22;;;26.73;52.19
62011;BME280;47967;51.756;10.174;2022-08-04T20:02:57;99446.34;;;26.72;51.91
62011;BME280;47967;51.756;10.174;2022-08-04T20:07:00;99451.69;;;26.68;52.17
62011;BME280;47967;51.756;10.174;2022-08-04T20:11:03;99451.38;;;26.69;51.77
62011;BME280;47967;51.756;10.174;2022-08-04T20:15:11;99455.41;;;26.63;52.21
62011;BME280;47967;51.756;10.174;2022-08-04T20:19:16;99463.28;;;26.47;51.89
62011;BME280;47967;51.756;10.174;2022-08-04T20:23:19;99467.13;;;26.37;52.27
62011;BME280;47967;51.756;10.174;2022-08-04T20:27:42;99457.31;;;26.54;51.69
62011;BME280;47967;51.756;10.174;2022-08-04T20:32:00;99471.72;;;26.65;51.27
62011;BME280;47967;51.756;10.174;2022-08-04T20:36:10;99487.28;;;26.61;51.78
62011;BME280;47967;51.756;10.174;2022-08-04T20:40:13;99501.44;;;26.36;51.97
62011;BME280;47967;51.756;10.174;2022-08-04T20:44:15;99502.47;;;26.27;52.46
62011;BME280;47967;51.756;10.174;2022-08-04T20:48:26;99496.88;;;26.18;52.60
62011;BME280;47967;51.756;10.174;2022-08-04T20:52:30;99497.31;;;26.11;52.93
62011;BME280;47967;51.756;10.174;2022-08-04T20:56:34;99499.66;;;26.18;52.73
62011;BME280;47967;51.756;10.174;2022-08-04T21:00:36;99491.84;;;26.06;53.47
62011;BME280;47967;51.756;10.174;2022-08-04T21:04:39;99491.78;;;26.11;53.05
62011;BME280;47967;51.756;10.174;2022-08-04T21:08:50;99495.06;;;25.99;53.17
62011;BME280;47967;51.756;10.174;2022-08-04T21:12:58;99479.06;;;25.96;53.88
62011;BME280;47967;51.756;10.174;2022-08-04T21:17:00;99459.94;;;26.00;53.69
62011;BME280;47967;51.756;10.174;2022-08-04T21:21:04;99454.75;;;25.84;54.64
62011;BME280;47967;51.756;10.174;2022-08-04T21:25:10;99458.84;;;25.73;54.72
62011;BME280;47967;51.756;10.174;2022-08-04T21:29:17;99461.84;;;25.63;55.12
62011;BME280;47967;51.756;10.174;2022-08-04T21:33:24;99460.28;;;25.70;54.89
62011;BME280;47967;51.756;10.174;2022-08-04T21:37:47;99453.69;;;25.57;55.34
62011;BME280;47967;51.756;10.174;2022-08-04T21:42:03;99457.47;;;25.48;55.72
62011;BME280;47967;51.756;10.174;2022-08-04T21:46:26;99468.69;;;25.23;56.67
62011;BME280;47967;51.756;10.174;2022-08-04T21:50:30;99477.56;;;25.06;57.15
62011;BME280;47967;51.756;10.174;2022-08-04T21:54:33;99481.00;;;24.98;57.59
62011;BME280;47967;51.756;10.174;2022-08-04T21:58:39;99491.34;;;25.06;57.34
62011;BME280;47967;51.756;10.174;2022-08-04T22:02:45;99491.78;;;25.14;57.31
62011;BME280;47967;51.756;10.174;2022-08-04T22:06:54;99492.00;;;25.17;57.23
62011;BME280;47967;51.756;10.174;2022-08-04T22:10:56;99484.19;;;25.19;57.71
62011;BME280;47967;51.756;10.174;2022-08-04T22:15:00;99469.38;;;25.15;57.78
62011;BME280;47967;51.756;10.174;2022-08-04T22:19:25;99475.00;;;25.10;58.60